Time;durP1;ratioP1;P1;durP2;ratioP2;P2;SDS_P1;SDS_P2;PMS_P1;PMS_P2;Temp;Humidity;BMP_temperature;BMP_pressure;BME280_temperature;BME280_humidity;BME280_pressure;Samples;Min_cycle;Max_cycle;Signal;HPM_P1;HPM_P2
2022/08/06 00:01:53;;;;;;;0.20;0.20;;;18.00;99.90;;;;;;5064935;28;20188;-81
2022/08/06 00:04:20;;;;;;;0.83;0.23;;;18.10;99.90;;;;;;5067008;28;20195;-80
2022/08/06 00:06:45;;;;;;;0.20;0.20;;;18.20;99.90;;;;;;5066664;28;20275;-81
2022/08/06 00:09:11;;;;;;;0.13;0.13;;;18.30;99.90;;;;;;5062962;28;20313;-80
2022/08/06 00:11:38;;;;;;;0.30;0.30;;;18.30;99.90;;;;;;5068756;28;20242;-81
2022/08/06 00:14:04;;;;;;;0.27;0.27;;;18.30;99.90;;;;;;5064849;28;20296;-80
2022/08/06 00:16:29;;;;;;;0.20;0.20;;;18.00;99.90;;;;;;5065909;28;20222;-80
2022/08/06 00:18:55;;;;;;;0.20;0.20;;;17.90;99.90;;;;;;5065508;28;20246;-80
2022/08/06 00:21:21;;;;;;;0.10;0.10;;;17.70;99.90;;;;;;5070235;28;20203;-80
2022/08/06 00:23:46;;;;;;;0.27;0.27;;;17.70;99.90;;;;;;5066451;28;20211;-81
2022/08/06 00:26:12;;;;;;;0.10;0.10;;;17.80;99.90;;;;;;5068782;28;20185;-81
2022/08/06 00:28:38;;;;;;;0.27;0.27;;;17.70;99.90;;;;;;5060945;28;20181;-81
2022/08/06 00:31:04;;;;;;;0.30;0.30;;;17.70;99.90;;;;;;5059442;28;20187;-81
2022/08/06 00:33:30;;;;;;;0.70;0.30;;;17.60;99.90;;;;;;5061917;28;20244;-81
2022/08/06 00:35:56;;;;;;;0.20;0.20;;;17.50;99.90;;;;;;5087136;28;20203;-80
2022/08/06 00:38:22;;;;;;;0.20;0.20;;;17.50;99.90;;;;;;5065473;28;20213;-81
2022/08/06 00:40:48;;;;;;;0.10;0.10;;;17.50;99.90;;;;;;5064977;28;20187;-81
2022/08/06 00:43:14;;;;;;;0.17;0.17;;;17.60;99.90;;;;;;5056201;28;20201;-80
2022/08/06 00:45:39;;;;;;;1.03;1.03;;;17.70;99.90;;;;;;5066588;28;20572;-80
2022/08/06 00:48:05;;;;;;;0.63;0.30;;;17.70;99.90;;;;;;5062206;28;20315;-81
2022/08/06 00:50:31;;;;;;;0.10;0.10;;;17.80;99.90;;;;;;5061961;28;20208;-81
2022/08/06 00:52:58;;;;;;;0.33;0.33;;;17.80;99.90;;;;;;5063698;28;20217;-80
2022/08/06 00:55:24;;;;;;;0.57;0.10;;;17.40;99.90;;;;;;5068908;28;20706;-80
2022/08/06 00:57:49;;;;;;;0.20;0.20;;;17.40;99.90;;;;;;5069112;28;20187;-80
2022/08/06 01:00:15;;;;;;;0.20;0.20;;;17.30;99.90;;;;;;5063553;28;20742;-80
2022/08/06 01:02:40;;;;;;;0.20;0.20;;;17.30;99.90;;;;;;5067775;28;20209;-80
2022/08/06 01:05:06;;;;;;;0.23;0.20;;;17.40;99.90;;;;;;5067725;28;20194;-80
2022/08/06 01:07:32;;;;;;;0.20;0.20;;;17.50;99.90;;;;;;5064082;28;20192;-81
2022/08/06 01:09:57;;;;;;;0.33;0.20;;;17.50;99.90;;;;;;5064620;28;20680;-80
2022/08/06 01:12:23;;;;;;;0.20;0.20;;;17.50;99.90;;;;;;5068859;28;20212;-80
2022/08/06 01:14:48;;;;;;;0.37;0.20;;;17.60;99.90;;;;;;5073204;28;20602;-81
2022/08/06 01:17:21;;;;;;;1.90;0.23;;;17.40;99.90;;;;;;5090211;28;20230;-81
2022/08/06 01:19:53;;;;;;;0.30;0.30;;;17.20;99.90;;;;;;5071728;28;20189;-80
2022/08/06 01:22:46;;;;;;;0.57;0.30;;;17.20;99.90;;;;;;5058401;28;20206;-81
2022/08/06 01:25:44;;;;;;;0.63;0.43;;;17.10;99.90;;;;;;5069327;28;20216;-80
2022/08/06 01:28:28;;;;;;;0.40;0.40;;;16.90;99.90;;;;;;5034057;28;20201;-80
2022/08/06 01:31:04;;;;;;;0.10;0.10;;;16.60;99.90;;;;;;5063789;28;20242;-80
2022/08/06 01:33:41;;;;;;;0.10;0.10;;;16.60;99.90;;;;;;5067593;28;20193;-80
2022/08/06 01:36:11;;;;;;;0.37;0.37;;;16.80;99.90;;;;;;5065314;28;20584;-80
2022/08/06 01:38:44;;;;;;;0.20;0.20;;;16.70;99.90;;;;;;5068777;28;20185;-80
2022/08/06 01:41:38;;;;;;;0.23;0.23;;;16.70;99.90;;;;;;5066783;28;20276;-80
2022/08/06 01:44:02;;;;;;;0.13;0.13;;;16.50;99.90;;;;;;5058110;28;20747;-80
2022/08/06 01:46:30;;;;;;;0.30;0.30;;;16.50;99.90;;;;;;5070472;28;20280;-80
2022/08/06 01:48:57;;;;;;;0.20;0.20;;;16.30;99.90;;;;;;5072148;28;20740;-80
2022/08/06 01:51:24;;;;;;;0.30;0.30;;;16.20;99.90;;;;;;5070959;28;20203;-80
2022/08/06 01:53:50;;;;;;;0.10;0.10;;;16.30;99.90;;;;;;5090510;28;20201;-81
2022/08/06 01:56:17;;;;;;;0.10;0.10;;;16.20;99.90;;;;;;5071580;28;20181;-80
2022/08/06 01:58:45;;;;;;;0.20;0.20;;;16.40;99.90;;;;;;5061448;28;20216;-80
2022/08/06 02:01:13;;;;;;;0.20;0.20;;;16.40;99.90;;;;;;5068180;28;20201;-80
2022/08/06 02:03:52;;;;;;;0.30;0.30;;;16.60;99.90;;;;;;5064995;28;20265;-80
2022/08/06 02:06:22;;;;;;;0.20;0.20;;;16.60;99.90;;;;;;5070685;28;20200;-80
2022/08/06 02:08:50;;;;;;;0.23;0.23;;;16.40;99.90;;;;;;5067147;28;20184;-80
2022/08/06 02:11:16;;;;;;;0.10;0.10;;;16.40;99.90;;;;;;5073678;28;20561;-80
2022/08/06 02:13:43;;;;;;;0.20;0.20;;;16.30;99.90;;;;;;5070366;28;20298;-80
2022/08/06 02:16:10;;;;;;;0.20;0.20;;;16.20;99.90;;;;;;5064099;28;20186;-80
2022/08/06 02:18:40;;;;;;;0.20;0.20;;;16.00;99.90;;;;;;5059974;28;20196;-80
2022/08/06 02:21:16;;;;;;;0.20;0.20;;;15.90;99.90;;;;;;5069472;28;20279;-81
2022/08/06 02:23:43;;;;;;;0.20;0.20;;;15.90;99.90;;;;;;5064219;28;20203;-81
2022/08/06 02:26:11;;;;;;;0.20;0.20;;;16.00;99.90;;;;;;5069937;28;20196;-80
2022/08/06 02:28:38;;;;;;;0.10;0.10;;;15.80;99.90;;;;;;5061489;28;20200;-80
2022/08/06 02:31:04;;;;;;;0.20;0.20;;;15.70;99.90;;;;;;5062116;28;20204;-80
2022/08/06 02:33:29;;;;;;;0.10;0.10;;;15.80;99.90;;;;;;5070992;28;20229;-80
2022/08/06 02:36:07;;;;;;;0.67;0.20;;;15.80;99.90;;;;;;5060435;28;20207;-80
2022/08/06 02:38:40;;;;;;;0.20;0.20;;;15.80;99.90;;;;;;5067214;28;20181;-81
2022/08/06 02:41:21;;;;;;;0.20;0.20;;;15.90;99.90;;;;;;5065262;28;20188;-80
2022/08/06 02:43:55;;;;;;;0.10;0.10;;;15.80;99.90;;;;;;5069573;28;20240;-80
2022/08/06 02:46:33;;;;;;;0.67;0.43;;;15.80;99.90;;;;;;5088252;28;20194;-80
2022/08/06 02:49:04;;;;;;;0.53;0.43;;;15.80;99.90;;;;;;5063676;28;20209;-80
2022/08/06 02:51:39;;;;;;;0.23;0.23;;;15.70;99.90;;;;;;5089348;28;20197;-80
2022/08/06 02:54:07;;;;;;;0.20;0.20;;;15.60;99.90;;;;;;5064269;28;20202;-80
2022/08/06 02:56:35;;;;;;;0.10;0.10;;;15.50;99.90;;;;;;5064670;28;20172;-80
2022/08/06 02:59:02;;;;;;;0.20;0.20;;;15.50;99.90;;;;;;5072834;28;20263;-80
2022/08/06 03:01:37;;;;;;;0.20;0.20;;;15.40;99.90;;;;;;5060323;28;20206;-80
2022/08/06 03:04:04;;;;;;;0.30;0.30;;;15.40;99.90;;;;;;5060597;28;20762;-80
2022/08/06 03:06:33;;;;;;;0.10;0.10;;;15.40;99.90;;;;;;5067410;28;20565;-80
2022/08/06 03:09:00;;;;;;;0.10;0.10;;;15.40;99.90;;;;;;5068238;28;20234;-80
2022/08/06 03:11:30;;;;;;;0.10;0.10;;;15.40;99.90;;;;;;5057641;28;20183;-80
2022/08/06 03:13:57;;;;;;;0.60;0.20;;;15.30;99.90;;;;;;5059088;28;20225;-81
2022/08/06 03:16:24;;;;;;;0.10;0.10;;;15.20;99.90;;;;;;5060053;28;20605;-80
2022/08/06 03:18:52;;;;;;;0.20;0.20;;;15.20;99.90;;;;;;5067315;28;20183;-80
2022/08/06 03:21:22;;;;;;;2.33;0.40;;;15.30;99.90;;;;;;5061935;28;20175;-80
2022/08/06 03:23:49;;;;;;;0.20;0.20;;;15.40;99.90;;;;;;5076040;28;20197;-80
2022/08/06 03:26:15;;;;;;;0.10;0.10;;;15.40;99.90;;;;;;5057054;28;20779;-80
2022/08/06 03:28:42;;;;;;;0.20;0.20;;;15.30;99.90;;;;;;5058981;28;20198;-80
2022/08/06 03:31:08;;;;;;;0.33;0.30;;;15.30;99.90;;;;;;5061240;28;20717;-80
2022/08/06 03:33:35;;;;;;;0.73;0.30;;;15.30;99.90;;;;;;5063989;28;20247;-80
2022/08/06 03:36:02;;;;;;;0.10;0.10;;;15.20;99.90;;;;;;5062621;28;20209;-80
2022/08/06 03:38:36;;;;;;;0.10;0.10;;;15.30;99.90;;;;;;5071415;28;20533;-80
2022/08/06 03:41:02;;;;;;;0.17;0.17;;;15.20;99.90;;;;;;5064521;28;20521;-80
2022/08/06 03:43:29;;;;;;;0.30;0.30;;;15.10;99.90;;;;;;5062575;28;20220;-80
2022/08/06 03:46:00;;;;;;;0.20;0.20;;;15.00;99.90;;;;;;5066904;28;20226;-80
2022/08/06 03:48:32;;;;;;;0.10;0.10;;;15.00;99.90;;;;;;5056085;28;20195;-80
2022/08/06 03:51:01;;;;;;;0.50;0.50;;;14.90;99.90;;;;;;5062899;28;20291;-80
2022/08/06 03:53:27;;;;;;;0.10;0.10;;;14.90;99.90;;;;;;5057791;28;20518;-80
2022/08/06 03:55:57;;;;;;;0.30;0.30;;;14.80;99.90;;;;;;5059330;28;20191;-80
2022/08/06 03:58:25;;;;;;;0.20;0.20;;;14.90;99.90;;;;;;5072560;28;20737;-79
2022/08/06 04:01:00;;;;;;;0.10;0.10;;;14.80;99.90;;;;;;5064640;28;20192;-80
2022/08/06 04:03:27;;;;;;;0.17;0.17;;;14.80;99.90;;;;;;5069845;28;20339;-81
2022/08/06 04:05:54;;;;;;;0.10;0.10;;;14.80;99.90;;;;;;5071995;28;20177;-80
2022/08/06 04:08:20;;;;;;;0.20;0.20;;;14.80;99.90;;;;;;5068409;28;20184;-80
2022/08/06 04:10:50;;;;;;;0.50;0.50;;;14.80;99.90;;;;;;5080054;28;20197;-81
2022/08/06 04:13:19;;;;;;;0.50;0.50;;;14.70;99.90;;;;;;5069393;28;20189;-80
2022/08/06 04:15:45;;;;;;;0.10;0.10;;;14.70;99.90;;;;;;5067238;28;20186;-80
2022/08/06 04:18:15;;;;;;;0.20;0.20;;;14.70;99.90;;;;;;5078331;28;20188;-79
2022/08/06 04:20:43;;;;;;;0.20;0.20;;;14.60;99.90;;;;;;5084726;28;20804;-80
2022/08/06 04:23:10;;;;;;;0.10;0.10;;;14.50;99.90;;;;;;5057015;28;20227;-80
2022/08/06 04:25:43;;;;;;;0.20;0.20;;;14.60;99.90;;;;;;5067067;28;20189;-80
2022/08/06 04:28:10;;;;;;;0.30;0.30;;;14.50;99.90;;;;;;5069755;28;20678;-80
2022/08/06 04:30:36;;;;;;;0.20;0.20;;;14.50;99.90;;;;;;5069673;28;20281;-80
2022/08/06 04:33:04;;;;;;;0.30;0.30;;;14.50;99.90;;;;;;5091222;28;20206;-80
2022/08/06 04:35:30;;;;;;;0.10;0.10;;;14.50;99.90;;;;;;5072746;28;20599;-80
2022/08/06 04:37:57;;;;;;;0.10;0.10;;;14.50;99.90;;;;;;5075195;28;20235;-79
2022/08/06 04:40:24;;;;;;;0.30;0.30;;;14.60;99.90;;;;;;5083831;28;20188;-80
2022/08/06 04:42:50;;;;;;;0.70;0.70;;;14.80;99.90;;;;;;5065582;28;20211;-80
2022/08/06 04:45:17;;;;;;;0.20;0.20;;;14.80;99.90;;;;;;5093441;28;20655;-81
2022/08/06 04:47:43;;;;;;;0.20;0.20;;;14.90;99.90;;;;;;5071825;28;20196;-81
2022/08/06 04:50:10;;;;;;;0.20;0.20;;;15.10;99.90;;;;;;5088361;28;20211;-80
2022/08/06 04:52:36;;;;;;;0.10;0.10;;;15.20;99.90;;;;;;5076118;28;20211;-81
2022/08/06 04:55:01;;;;;;;0.20;0.20;;;15.30;99.90;;;;;;5076681;28;20238;-80
2022/08/06 04:57:27;;;;;;;0.33;0.33;;;15.40;99.90;;;;;;5065143;28;20179;-80
2022/08/06 04:59:52;;;;;;;0.23;0.23;;;15.50;99.90;;;;;;5068740;28;20215;-80
2022/08/06 05:02:18;;;;;;;0.20;0.20;;;15.40;99.90;;;;;;5060698;28;20195;-80
2022/08/06 05:04:44;;;;;;;0.17;0.17;;;15.40;99.90;;;;;;5069519;28;20185;-80
2022/08/06 05:07:20;;;;;;;0.30;0.30;;;15.50;99.90;;;;;;5067533;28;20186;-80
2022/08/06 05:09:48;;;;;;;0.10;0.10;;;15.60;99.90;;;;;;5073127;28;20291;-80
2022/08/06 05:12:21;;;;;;;0.53;0.53;;;15.60;99.90;;;;;;5070908;28;20218;-80
2022/08/06 05:15:21;;;;;;;0.10;0.10;;;15.70;99.90;;;;;;5076288;28;20189;-80
2022/08/06 05:17:56;;;;;;;2.17;0.30;;;15.80;99.90;;;;;;5070260;28;20214;-82
2022/08/06 05:20:22;;;;;;;0.23;0.23;;;16.00;99.90;;;;;;5070274;28;20260;-82
2022/08/06 05:22:52;;;;;;;0.10;0.10;;;16.00;99.90;;;;;;5070476;28;20345;-82
2022/08/06 05:25:19;;;;;;;0.20;0.20;;;16.10;99.90;;;;;;5067831;28;20183;-82
2022/08/06 05:27:44;;;;;;;0.10;0.10;;;16.00;99.90;;;;;;5060797;28;20182;-82
2022/08/06 05:30:10;;;;;;;0.20;0.20;;;16.20;99.90;;;;;;5073011;28;20313;-81
2022/08/06 05:32:47;;;;;;;0.27;0.23;;;16.20;99.90;;;;;;5073432;28;20194;-81
2022/08/06 05:35:14;;;;;;;0.33;0.27;;;16.30;99.90;;;;;;5075115;28;20447;-81
2022/08/06 05:37:40;;;;;;;0.37;0.20;;;16.30;99.90;;;;;;5075435;28;20182;-82
2022/08/06 05:40:07;;;;;;;0.20;0.20;;;16.50;99.90;;;;;;5090593;28;20190;-82
2022/08/06 05:42:33;;;;;;;0.20;0.20;;;16.40;99.90;;;;;;5076732;28;20197;-82
2022/08/06 05:44:59;;;;;;;0.20;0.20;;;16.60;99.90;;;;;;5070288;28;20204;-79
2022/08/06 05:47:28;;;;;;;0.20;0.20;;;16.60;99.90;;;;;;5069759;28;20214;-79
2022/08/06 05:50:05;;;;;;;0.10;0.10;;;16.60;99.90;;;;;;5074208;28;20681;-79
2022/08/06 05:53:01;;;;;;;0.10;0.10;;;16.90;99.90;;;;;;5072636;28;20212;-79
2022/08/06 05:55:47;;;;;;;0.10;0.10;;;17.10;99.90;;;;;;5059159;28;20197;-79
2022/08/06 05:58:18;;;;;;;0.17;0.17;;;17.20;99.90;;;;;;5063687;28;20185;-79
2022/08/06 06:00:45;;;;;;;0.10;0.10;;;17.30;99.90;;;;;;5066631;28;20181;-79
2022/08/06 06:03:16;;;;;;;0.27;0.10;;;17.40;99.90;;;;;;5066799;28;20204;-79
2022/08/06 06:05:42;;;;;;;0.10;0.10;;;17.30;99.90;;;;;;5088912;28;20241;-79
2022/08/06 06:08:08;;;;;;;0.20;0.20;;;17.40;99.90;;;;;;5070811;28;20189;-79
2022/08/06 06:10:36;;;;;;;0.10;0.10;;;17.40;99.90;;;;;;5088872;28;20273;-79
2022/08/06 06:13:04;;;;;;;0.40;0.40;;;17.60;99.90;;;;;;5062294;28;20208;-78
2022/08/06 06:15:30;;;;;;;0.17;0.17;;;17.50;99.90;;;;;;5076505;28;20172;-79
2022/08/06 06:18:08;;;;;;;0.37;0.37;;;17.70;99.90;;;;;;5068624;28;20540;-79
2022/08/06 06:20:55;;;;;;;0.20;0.20;;;17.70;99.90;;;;;;5069290;28;20192;-79
2022/08/06 06:23:26;;;;;;;0.20;0.20;;;17.70;99.90;;;;;;5067442;28;20226;-80
2022/08/06 06:26:36;;;;;;;1.37;0.60;;;17.50;99.90;;;;;;5067021;28;20191;-79
2022/08/06 06:29:07;;;;;;;0.27;0.20;;;17.80;99.90;;;;;;5064947;28;20672;-79
2022/08/06 06:32:02;;;;;;;0.30;0.30;;;17.60;99.90;;;;;;5067595;28;20782;-79
2022/08/06 06:34:44;;;;;;;0.40;0.40;;;17.70;99.90;;;;;;5068649;28;20181;-79
2022/08/06 06:37:26;;;;;;;0.20;0.20;;;17.60;99.90;;;;;;5067340;28;20186;-80
2022/08/06 06:40:10;;;;;;;0.20;0.20;;;17.70;99.90;;;;;;5065940;28;20185;-79
2022/08/06 06:42:56;;;;;;;0.30;0.30;;;18.10;99.90;;;;;;5069034;28;20676;-79
2022/08/06 06:45:32;;;;;;;0.10;0.10;;;18.00;99.90;;;;;;5083930;28;20236;-79
2022/08/06 06:48:03;;;;;;;0.10;0.10;;;18.10;99.90;;;;;;5066131;28;20185;-79
2022/08/06 06:50:34;;;;;;;0.60;0.60;;;18.30;99.90;;;;;;5071729;28;20197;-79
2022/08/06 06:53:00;;;;;;;0.20;0.20;;;18.30;99.90;;;;;;5065113;28;20211;-80
2022/08/06 06:55:32;;;;;;;0.20;0.20;;;18.40;99.90;;;;;;5062548;28;20186;-79
2022/08/06 06:58:07;;;;;;;0.23;0.23;;;18.50;99.90;;;;;;5069848;28;20181;-80
2022/08/06 07:00:34;;;;;;;0.20;0.20;;;18.90;99.90;;;;;;5066537;28;20191;-80
2022/08/06 07:03:01;;;;;;;0.20;0.20;;;18.90;99.90;;;;;;5062761;28;20685;-79
2022/08/06 07:05:28;;;;;;;0.20;0.20;;;18.90;99.90;;;;;;5066974;28;20185;-80
2022/08/06 07:07:55;;;;;;;0.10;0.10;;;18.90;99.90;;;;;;5068299;28;20250;-80
2022/08/06 07:10:23;;;;;;;0.17;0.17;;;18.90;99.90;;;;;;5069772;28;20212;-80
2022/08/06 07:12:50;;;;;;;0.27;0.27;;;19.10;99.90;;;;;;5068166;28;20374;-80
2022/08/06 07:15:17;;;;;;;0.20;0.20;;;18.90;99.90;;;;;;5068990;28;20181;-80
2022/08/06 07:17:45;;;;;;;0.17;0.17;;;19.10;99.90;;;;;;5063949;28;20234;-80
2022/08/06 07:20:13;;;;;;;0.30;0.30;;;19.10;99.90;;;;;;5067938;28;20820;-80
2022/08/06 07:22:42;;;;;;;0.20;0.20;;;19.20;99.90;;;;;;5063608;28;20279;-80
2022/08/06 07:25:12;;;;;;;0.30;0.30;;;19.30;99.90;;;;;;5062218;28;20279;-80
2022/08/06 07:27:39;;;;;;;0.27;0.27;;;19.70;99.90;;;;;;5060946;28;20670;-80
2022/08/06 07:30:06;;;;;;;0.30;0.30;;;19.60;99.90;;;;;;5061039;28;20215;-80
2022/08/06 07:32:34;;;;;;;0.30;0.30;;;19.20;99.90;;;;;;5062929;28;20197;-80
2022/08/06 07:35:08;;;;;;;0.20;0.20;;;19.70;99.90;;;;;;5060320;28;20201;-80
2022/08/06 07:37:37;;;;;;;0.20;0.20;;;19.40;99.90;;;;;;5063616;28;20185;-79
2022/08/06 07:40:05;;;;;;;0.10;0.10;;;19.50;99.90;;;;;;5058693;28;20189;-79
2022/08/06 07:42:32;;;;;;;0.10;0.10;;;19.80;99.90;;;;;;5064017;28;20266;-80
2022/08/06 07:45:01;;;;;;;1.80;0.83;;;19.80;99.90;;;;;;5067915;28;20209;-79
2022/08/06 07:47:36;;;;;;;0.20;0.20;;;19.90;99.90;;;;;;5061765;28;20299;-80
2022/08/06 07:50:01;;;;;;;0.10;0.10;;;20.00;99.90;;;;;;5066780;28;20263;-80
2022/08/06 07:52:28;;;;;;;0.37;0.37;;;20.10;99.90;;;;;;5056697;28;20194;-79
2022/08/06 07:54:54;;;;;;;0.20;0.20;;;20.10;99.90;;;;;;5068798;28;20216;-80
2022/08/06 07:57:22;;;;;;;0.20;0.20;;;20.30;99.90;;;;;;5075622;28;20188;-79
2022/08/06 07:59:48;;;;;;;0.40;0.40;;;20.40;99.90;;;;;;5067593;28;20222;-79
2022/08/06 08:02:15;;;;;;;0.20;0.20;;;20.50;99.90;;;;;;5062945;28;20209;-80
2022/08/06 08:07:26;;;;;;;0.10;0.10;;;20.70;99.90;;;;;;5070529;28;20191;-80
2022/08/06 08:09:52;;;;;;;0.47;0.30;;;20.80;99.90;;;;;;5067461;28;20204;-79
2022/08/06 08:12:18;;;;;;;0.20;0.20;;;20.80;99.90;;;;;;5068632;28;20196;-80
2022/08/06 08:14:45;;;;;;;0.30;0.30;;;20.70;99.90;;;;;;5065888;28;20543;-80
2022/08/06 08:17:11;;;;;;;0.30;0.30;;;20.40;99.90;;;;;;5085525;28;20241;-80
2022/08/06 08:19:37;;;;;;;0.47;0.47;;;20.50;99.90;;;;;;5063989;28;20276;-79
2022/08/06 08:22:13;;;;;;;0.20;0.20;;;20.40;99.90;;;;;;5066308;28;20178;-80
2022/08/06 08:24:39;;;;;;;0.30;0.30;;;20.70;99.90;;;;;;5068621;28;20234;-80
2022/08/06 08:27:09;;;;;;;0.20;0.20;;;21.10;99.90;;;;;;5068256;28;20193;-80
2022/08/06 08:29:35;;;;;;;0.30;0.30;;;21.10;99.90;;;;;;5081693;28;20208;-80
2022/08/06 08:32:01;;;;;;;0.87;0.87;;;20.30;99.90;;;;;;5063139;28;20230;-80
2022/08/06 08:34:26;;;;;;;0.10;0.10;;;20.20;99.90;;;;;;5063928;28;20173;-79
2022/08/06 08:36:52;;;;;;;0.13;0.13;;;20.80;99.90;;;;;;5069037;28;20188;-81
2022/08/06 08:39:17;;;;;;;0.10;0.10;;;20.70;99.90;;;;;;5075406;28;20237;-82
2022/08/06 08:41:49;;;;;;;0.10;0.10;;;20.40;99.90;;;;;;5071328;28;20275;-82
2022/08/06 08:44:24;;;;;;;0.20;0.20;;;20.30;99.90;;;;;;5066630;28;20207;-81
2022/08/06 08:46:51;;;;;;;0.40;0.40;;;20.50;99.90;;;;;;5060846;28;20238;-81
2022/08/06 08:49:34;;;;;;;0.40;0.33;;;20.50;99.90;;;;;;5065695;28;20597;-80
2022/08/06 08:52:02;;;;;;;0.23;0.23;;;20.80;99.90;;;;;;5068321;28;20225;-80
2022/08/06 08:54:31;;;;;;;0.20;0.20;;;20.90;99.90;;;;;;5066583;28;20176;-80
2022/08/06 08:56:57;;;;;;;0.20;0.20;;;20.80;99.90;;;;;;5076216;28;20266;-80
2022/08/06 08:59:23;;;;;;;0.20;0.20;;;21.00;99.90;;;;;;5082467;28;20190;-80
2022/08/06 09:01:50;;;;;;;0.27;0.20;;;21.30;99.90;;;;;;5070340;28;20219;-80
2022/08/06 09:04:16;;;;;;;0.27;0.27;;;21.60;99.90;;;;;;5078543;28;20216;-80
2022/08/06 09:06:42;;;;;;;0.30;0.30;;;21.60;99.90;;;;;;5078141;28;20205;-80
2022/08/06 09:09:08;;;;;;;0.23;0.23;;;21.10;99.90;;;;;;5071264;28;20261;-80
2022/08/06 09:11:35;;;;;;;0.23;0.23;;;21.00;99.90;;;;;;5079876;28;20236;-79
2022/08/06 09:14:02;;;;;;;0.20;0.20;;;21.30;99.90;;;;;;5081587;28;20204;-80
2022/08/06 09:16:30;;;;;;;0.20;0.20;;;21.50;99.90;;;;;;5083614;28;20181;-80
2022/08/06 09:18:56;;;;;;;0.30;0.30;;;21.30;99.90;;;;;;5088446;28;20187;-80
2022/08/06 09:21:21;;;;;;;0.17;0.17;;;21.40;99.90;;;;;;5081286;28;20178;-79
2022/08/06 09:23:47;;;;;;;0.40;0.40;;;21.30;99.90;;;;;;5082041;28;20231;-79
2022/08/06 09:26:12;;;;;;;0.20;0.20;;;21.10;99.90;;;;;;5074763;28;20241;-79
2022/08/06 09:28:43;;;;;;;0.27;0.27;;;20.70;99.90;;;;;;5073390;28;20245;-79
2022/08/06 09:31:20;;;;;;;0.27;0.27;;;21.30;99.90;;;;;;5075151;28;20202;-80
2022/08/06 09:34:05;;;;;;;0.30;0.30;;;21.60;99.90;;;;;;5082972;28;20209;-79
2022/08/06 09:36:43;;;;;;;0.20;0.20;;;21.90;99.90;;;;;;5069462;28;20196;-79
2022/08/06 09:39:08;;;;;;;0.30;0.30;;;21.50;99.90;;;;;;5073964;28;20552;-79
2022/08/06 09:41:34;;;;;;;0.53;0.30;;;21.10;99.90;;;;;;5074260;28;20276;-79
2022/08/06 09:44:09;;;;;;;0.20;0.20;;;21.70;99.90;;;;;;5070162;28;20227;-80
2022/08/06 09:46:39;;;;;;;0.20;0.20;;;21.70;99.90;;;;;;5073360;28;20218;-80
2022/08/06 09:49:05;;;;;;;0.20;0.20;;;21.90;99.90;;;;;;5076948;28;20612;-80
2022/08/06 09:51:34;;;;;;;0.70;0.57;;;21.80;99.90;;;;;;5067604;28;20181;-80
2022/08/06 09:54:01;;;;;;;0.10;0.10;;;21.50;99.90;;;;;;5069484;28;20212;-82
2022/08/06 09:56:27;;;;;;;0.23;0.20;;;21.80;99.90;;;;;;5080997;28;20488;-80
2022/08/06 09:59:04;;;;;;;0.50;0.50;;;22.30;99.90;;;;;;5065761;28;20385;-80
2022/08/06 10:01:46;;;;;;;0.57;0.57;;;22.00;99.90;;;;;;5069681;28;20173;-80
2022/08/06 10:04:22;;;;;;;0.13;0.10;;;21.60;99.90;;;;;;5066838;28;20207;-80
2022/08/06 10:06:53;;;;;;;0.20;0.20;;;21.90;99.90;;;;;;5068686;28;20550;-80
2022/08/06 10:09:19;;;;;;;0.20;0.20;;;22.60;99.90;;;;;;5088762;28;20696;-80
2022/08/06 10:11:44;;;;;;;0.30;0.30;;;22.60;99.90;;;;;;5073408;28;20189;-80
2022/08/06 10:14:33;;;;;;;0.40;0.40;;;22.50;99.90;;;;;;5059306;28;20287;-80
2022/08/06 10:17:12;;;;;;;0.17;0.17;;;22.50;99.90;;;;;;5068877;28;20185;-80
2022/08/06 10:19:41;;;;;;;0.17;0.17;;;23.10;99.90;;;;;;5066414;28;20174;-79
2022/08/06 10:22:17;;;;;;;0.20;0.20;;;23.10;99.90;;;;;;5073756;28;20263;-80
2022/08/06 10:24:44;;;;;;;0.10;0.10;;;22.70;99.90;;;;;;5088103;28;20207;-80
2022/08/06 10:27:15;;;;;;;0.20;0.20;;;23.20;99.90;;;;;;5070246;28;20585;-80
2022/08/06 10:29:49;;;;;;;0.20;0.20;;;22.30;99.90;;;;;;5063987;28;20246;-80
2022/08/06 10:32:25;;;;;;;0.43;0.20;;;22.40;99.90;;;;;;5070185;28;20197;-80
2022/08/06 10:34:52;;;;;;;3.80;0.63;;;22.40;99.90;;;;;;5073495;28;20184;-79
2022/08/06 10:37:19;;;;;;;0.20;0.20;;;22.10;99.90;;;;;;5066709;28;20268;-80
2022/08/06 10:39:49;;;;;;;0.20;0.20;;;22.70;99.90;;;;;;5066553;28;20177;-80
2022/08/06 10:42:15;;;;;;;0.10;0.10;;;23.00;99.90;;;;;;5067500;28;20698;-79
2022/08/06 10:44:41;;;;;;;0.20;0.20;;;22.70;99.90;;;;;;5069062;28;20717;-80
2022/08/06 10:47:07;;;;;;;0.20;0.20;;;22.90;99.90;;;;;;5071579;28;20888;-80
2022/08/06 10:49:34;;;;;;;0.30;0.30;;;23.30;99.90;;;;;;5065599;28;20632;-78
2022/08/06 10:52:00;;;;;;;0.37;0.20;;;23.20;99.90;;;;;;5079753;28;20189;-78
2022/08/06 10:54:26;;;;;;;0.20;0.20;;;23.20;99.90;;;;;;5064419;28;20177;-79
2022/08/06 10:56:54;;;;;;;0.20;0.20;;;23.40;99.90;;;;;;5070243;28;20187;-79
2022/08/06 10:59:20;;;;;;;0.20;0.20;;;23.40;99.90;;;;;;5060120;28;20247;-79
2022/08/06 11:02:15;;;;;;;0.20;0.20;;;23.50;99.90;;;;;;5086932;28;20182;-79
2022/08/06 11:04:57;;;;;;;0.10;0.10;;;23.30;99.90;;;;;;5067657;28;20264;-79
2022/08/06 11:07:37;;;;;;;0.30;0.30;;;23.30;99.90;;;;;;5069847;28;20256;-79
2022/08/06 11:10:32;;;;;;;0.40;0.40;;;23.00;99.90;;;;;;5074345;28;20300;-79
2022/08/06 11:13:26;;;;;;;0.10;0.10;;;23.30;99.90;;;;;;5081754;28;20288;-79
2022/08/06 11:15:52;;;;;;;0.20;0.20;;;23.90;99.90;;;;;;5069499;28;20194;-79
2022/08/06 11:18:18;;;;;;;0.20;0.20;;;24.40;99.90;;;;;;5070654;28;20195;-79
2022/08/06 11:20:49;;;;;;;0.20;0.20;;;24.00;99.90;;;;;;5065506;28;20678;-79
2022/08/06 11:23:14;;;;;;;0.23;0.23;;;24.60;99.90;;;;;;5062476;28;20201;-79
2022/08/06 11:25:57;;;;;;;0.10;0.10;;;24.10;99.90;;;;;;5063681;28;20185;-79
2022/08/06 11:28:29;;;;;;;0.20;0.20;;;23.90;99.90;;;;;;5060554;28;20391;-79
2022/08/06 11:30:56;;;;;;;0.20;0.20;;;24.20;99.90;;;;;;5060952;28;20296;-79
2022/08/06 11:33:35;;;;;;;0.33;0.30;;;24.20;99.90;;;;;;5062811;28;20252;-79
2022/08/06 11:36:02;;;;;;;0.30;0.30;;;23.60;99.90;;;;;;5070818;28;20260;-79
2022/08/06 11:38:43;;;;;;;0.17;0.17;;;23.80;99.90;;;;;;5069062;28;20670;-79
2022/08/06 11:41:23;;;;;;;0.20;0.20;;;24.60;99.90;;;;;;5071010;28;20275;-79
2022/08/06 11:43:52;;;;;;;0.13;0.13;;;24.00;99.90;;;;;;5063977;28;20259;-79
2022/08/06 11:46:31;;;;;;;0.10;0.10;;;23.80;99.90;;;;;;5065707;28;20267;-79
2022/08/06 11:48:59;;;;;;;0.17;0.17;;;24.10;99.90;;;;;;5066967;28;20196;-79
2022/08/06 11:51:57;;;;;;;0.30;0.30;;;24.20;99.90;;;;;;5086581;28;20201;-79
2022/08/06 11:54:32;;;;;;;0.30;0.30;;;24.20;99.90;;;;;;5067575;28;20197;-79
2022/08/06 11:57:06;;;;;;;0.10;0.10;;;24.30;99.90;;;;;;5084536;28;20172;-80
2022/08/06 11:59:38;;;;;;;0.97;0.30;;;24.10;99.90;;;;;;5068031;28;20258;-80
2022/08/06 12:02:09;;;;;;;0.20;0.20;;;24.90;99.90;;;;;;5069706;28;20208;-79
2022/08/06 12:04:34;;;;;;;0.20;0.20;;;25.50;99.90;;;;;;5070874;28;20184;-80
2022/08/06 12:07:26;;;;;;;0.20;0.20;;;25.10;99.90;;;;;;5065347;28;21656;-80
2022/08/06 12:10:00;;;;;;;0.23;0.23;;;25.10;99.90;;;;;;5067975;28;20200;-79
2022/08/06 12:12:27;;;;;;;0.20;0.20;;;24.60;99.90;;;;;;5067669;28;20734;-80
2022/08/06 12:14:55;;;;;;;0.20;0.20;;;25.10;99.90;;;;;;5068852;28;20208;-80
2022/08/06 12:17:22;;;;;;;0.20;0.20;;;24.90;99.90;;;;;;5086158;28;20181;-80
2022/08/06 12:19:51;;;;;;;0.20;0.20;;;24.70;99.90;;;;;;5066724;28;20185;-80
2022/08/06 12:22:18;;;;;;;0.17;0.17;;;25.20;99.90;;;;;;5064413;28;20208;-80
2022/08/06 12:24:45;;;;;;;0.20;0.20;;;25.60;99.90;;;;;;5064090;28;20184;-80
2022/08/06 12:27:11;;;;;;;0.10;0.10;;;24.80;99.90;;;;;;5068781;28;20176;-80
2022/08/06 12:29:38;;;;;;;0.57;0.57;;;25.10;99.90;;;;;;5059601;28;20209;-80
2022/08/06 12:32:23;;;;;;;0.20;0.20;;;25.50;99.90;;;;;;5067151;28;20185;-80
2022/08/06 12:34:51;;;;;;;0.93;0.57;;;25.20;99.90;;;;;;5083835;28;20185;-80
2022/08/06 12:37:17;;;;;;;0.20;0.20;;;24.30;99.90;;;;;;5073925;28;20181;-80
2022/08/06 12:42:29;;;;;;;0.30;0.30;;;24.40;99.90;;;;;;5072190;28;20218;-80
2022/08/06 12:44:55;;;;;;;0.20;0.20;;;25.20;99.90;;;;;;5070298;28;20183;-80
2022/08/06 12:47:22;;;;;;;0.20;0.20;;;25.70;99.90;;;;;;5062717;28;20200;-80
2022/08/06 12:49:47;;;;;;;0.20;0.20;;;25.00;99.90;;;;;;5069333;28;20224;-80
2022/08/06 12:52:21;;;;;;;0.40;0.30;;;24.30;99.90;;;;;;5067243;28;20194;-80
2022/08/06 12:54:48;;;;;;;0.10;0.10;;;24.20;99.90;;;;;;5067941;28;20241;-80
2022/08/06 12:57:25;;;;;;;0.20;0.20;;;24.60;99.90;;;;;;5075039;28;20177;-80
2022/08/06 12:59:53;;;;;;;0.30;0.30;;;24.80;99.90;;;;;;5066820;28;20205;-80
2022/08/06 13:02:20;;;;;;;0.23;0.17;;;25.40;99.90;;;;;;5067017;28;20215;-80
2022/08/06 13:04:53;;;;;;;0.20;0.20;;;25.90;99.90;;;;;;5075471;28;20213;-80
2022/08/06 13:07:19;;;;;;;0.20;0.20;;;25.40;99.90;;;;;;5069667;28;21112;-80
2022/08/06 13:09:46;;;;;;;0.20;0.20;;;25.60;99.90;;;;;;5070374;28;20212;-80